Time;durP1;ratioP1;P1;durP2;ratioP2;P2;SDS_P1;SDS_P2;PMS_P1;PMS_P2;Temp;Humidity;BMP_temperature;BMP_pressure;BME280_temperature;BME280_humidity;BME280_pressure;Samples;Min_cycle;Max_cycle;Signal;HPM_P1;HPM_P2
2023/07/03 00:02:12;;;;;;;5.13;4.63;;;;;;;25.20;46.92;97176.19;5012480;28;20205;-26
2023/07/03 00:04:45;;;;;;;5.30;4.50;;;;;;;25.21;47.25;97171.88;5010186;28;20223;-27
2023/07/03 00:07:13;;;;;;;5.37;4.83;;;;;;;25.23;47.22;97172.75;5021807;28;20236;-27
2023/07/03 00:09:40;;;;;;;5.90;4.60;;;;;;;25.26;47.19;97180.50;5013486;28;20195;-26
2023/07/03 00:12:08;;;;;;;5.53;4.73;;;;;;;25.27;47.06;97180.53;5019056;28;20203;-27
2023/07/03 00:14:34;;;;;;;5.70;4.93;;;;;;;25.29;46.85;97185.69;5013197;28;20222;-27
2023/07/03 00:17:01;;;;;;;5.47;4.60;;;;;;;25.30;46.76;97183.13;5012859;28;20201;-28
2023/07/03 00:19:31;;;;;;;5.33;4.63;;;;;;;25.30;46.72;97185.69;5011305;28;20213;-26
2023/07/03 00:22:00;;;;;;;4.77;4.27;;;;;;;25.32;46.72;97184.03;5013983;28;20209;-27
2023/07/03 00:24:28;;;;;;;5.13;4.40;;;;;;;25.33;46.74;97180.63;5020248;28;20225;-27
2023/07/03 00:26:55;;;;;;;4.60;4.20;;;;;;;25.32;46.88;97176.31;5018054;28;20222;-27
2023/07/03 00:29:22;;;;;;;4.90;4.40;;;;;;;25.35;47.02;97178.94;5027406;28;20256;-27
2023/07/03 00:31:48;;;;;;;5.90;4.83;;;;;;;25.37;46.87;97173.78;5021012;28;20209;-26
2023/07/03 00:34:15;;;;;;;4.97;4.47;;;;;;;25.38;47.12;97180.66;5017746;28;20254;-27
2023/07/03 00:36:42;;;;;;;6.07;4.50;;;;;;;25.36;47.06;97178.06;5012979;28;20195;-27
2023/07/03 00:39:09;;;;;;;4.67;4.17;;;;;;;25.38;46.67;97186.66;4994915;28;20213;-27
2023/07/03 00:41:35;;;;;;;4.40;4.00;;;;;;;25.39;46.77;97184.94;5011213;28;20747;-26
2023/07/03 00:44:02;;;;;;;5.27;4.70;;;;;;;25.39;46.64;97183.25;5020104;28;20279;-27
2023/07/03 00:46:29;;;;;;;4.47;4.00;;;;;;;25.33;46.77;97175.47;5013361;28;20218;-27
2023/07/03 00:48:56;;;;;;;4.30;3.90;;;;;;;25.41;46.67;97186.69;5002422;28;20210;-27
2023/07/03 00:51:22;;;;;;;5.00;4.50;;;;;;;25.40;46.71;97187.53;4994879;28;20625;-26
2023/07/03 00:53:49;;;;;;;5.00;4.13;;;;;;;25.42;46.61;97192.69;4985515;28;20284;-27
2023/07/03 00:56:15;;;;;;;4.50;4.10;;;;;;;25.42;46.75;97188.41;5016800;28;20198;-27
2023/07/03 00:58:42;;;;;;;5.03;4.40;;;;;;;25.43;46.77;97187.56;5012805;28;20203;-27
2023/07/03 01:01:34;;;;;;;5.17;4.10;;;;;;;25.41;46.59;97189.28;4992147;28;20256;-27
2023/07/03 01:04:34;;;;;;;4.33;3.93;;;;;;;25.44;47.04;97196.16;4985969;28;20221;-27
2023/07/03 01:07:05;;;;;;;4.40;4.00;;;;;;;25.44;46.63;97191.00;4965021;28;20700;-27
2023/07/03 01:09:35;;;;;;;4.80;4.30;;;;;;;25.45;46.95;97190.13;4981608;28;20559;-27
2023/07/03 01:12:02;;;;;;;4.43;3.73;;;;;;;25.38;46.71;97175.50;4968993;28;20207;-26
2023/07/03 01:14:28;;;;;;;4.50;4.10;;;;;;;25.45;46.75;97182.41;4971117;28;20245;-26
2023/07/03 01:16:56;;;;;;;4.37;3.97;;;;;;;25.39;46.68;97182.38;4993265;28;20560;-27
2023/07/03 01:19:29;;;;;;;4.47;3.80;;;;;;;25.46;46.66;97192.72;4976005;28;20230;-27
2023/07/03 01:22:02;;;;;;;4.57;4.17;;;;;;;25.41;47.01;97181.56;4993991;28;20561;-27
2023/07/03 01:24:44;;;;;;;4.53;4.10;;;;;;;25.46;46.65;97200.44;4986400;28;20228;-26
2023/07/03 01:27:12;;;;;;;4.93;4.47;;;;;;;25.41;46.58;97183.25;4973703;28;20248;-27
2023/07/03 01:29:39;;;;;;;4.40;3.90;;;;;;;25.47;46.69;97202.19;4978236;28;20256;-27
2023/07/03 01:32:07;;;;;;;4.77;4.10;;;;;;;25.48;46.70;97198.75;5011589;28;20203;-27
2023/07/03 01:34:33;;;;;;;6.53;3.87;;;;;;;25.47;46.57;97194.47;5010566;28;20619;-27
2023/07/03 01:37:00;;;;;;;4.27;3.87;;;;;;;25.49;46.58;97197.06;4982359;28;20256;-27
2023/07/03 01:39:27;;;;;;;4.30;3.90;;;;;;;25.49;46.65;97197.06;4985811;28;20649;-27
2023/07/03 01:41:53;;;;;;;4.33;3.93;;;;;;;25.45;46.76;97188.44;5001896;28;20195;-27
2023/07/03 01:44:20;;;;;;;3.87;3.47;;;;;;;25.48;46.86;97201.31;4984382;28;20268;-27
2023/07/03 01:46:47;;;;;;;4.53;4.07;;;;;;;25.50;47.08;97196.19;5010957;28;20249;-27
2023/07/03 01:49:14;;;;;;;4.10;3.70;;;;;;;25.49;46.96;97192.75;5011158;28;20198;-27
2023/07/03 01:51:59;;;;;;;4.73;3.80;;;;;;;25.49;46.81;97194.47;5008273;28;20206;-27
2023/07/03 01:54:29;;;;;;;4.27;3.87;;;;;;;25.47;46.96;97184.19;4978054;28;20230;-26
2023/07/03 01:56:56;;;;;;;3.93;3.63;;;;;;;25.49;46.82;97192.75;4994114;28;20198;-27
2023/07/03 01:59:24;;;;;;;4.40;4.00;;;;;;;25.50;47.01;97186.78;4997786;28;20737;-27
2023/07/03 02:02:12;;;;;;;5.60;3.83;;;;;;;25.50;46.88;97183.31;5005973;28;20702;-26
2023/07/03 02:04:50;;;;;;;4.77;4.27;;;;;;;25.44;46.66;97173.84;4993537;28;20222;-27
2023/07/03 02:07:16;;;;;;;4.40;3.80;;;;;;;25.50;46.88;97178.19;5001146;23;20580;-28
2023/07/03 02:09:43;;;;;;;4.13;3.73;;;;;;;25.50;46.71;97191.91;4968982;28;20210;-28
2023/07/03 02:12:11;;;;;;;4.30;3.90;;;;;;;25.50;46.75;97180.75;5002880;28;20206;-28
2023/07/03 02:14:38;;;;;;;4.20;3.80;;;;;;;25.51;46.72;97192.75;5008513;28;20681;-29
2023/07/03 02:17:06;;;;;;;4.10;3.70;;;;;;;25.51;46.72;97188.50;5001763;28;20234;-28
2023/07/03 02:19:33;;;;;;;5.03;4.00;;;;;;;25.50;46.83;97184.19;5006760;28;20580;-28
2023/07/03 02:22:00;;;;;;;4.03;3.67;;;;;;;25.51;46.70;97190.19;5007417;28;20665;-28
2023/07/03 02:24:26;;;;;;;4.67;4.17;;;;;;;25.50;46.79;97183.31;5004405;28;20573;-29
2023/07/03 02:26:53;;;;;;;4.30;3.90;;;;;;;25.51;46.63;97192.75;5007173;28;20258;-29
2023/07/03 02:29:20;;;;;;;4.30;3.90;;;;;;;25.52;46.98;97199.66;5011700;28;20206;-28
2023/07/03 02:31:46;;;;;;;4.57;4.17;;;;;;;25.53;46.83;97203.94;5011651;28;20285;-30
2023/07/03 02:34:13;;;;;;;4.30;3.87;;;;;;;25.52;47.17;97197.06;5001076;28;20571;-28
2023/07/03 02:36:39;;;;;;;3.90;3.60;;;;;;;25.51;47.09;97203.06;5002703;28;20226;-29
2023/07/03 02:39:06;;;;;;;4.47;3.97;;;;;;;25.53;47.15;97197.09;5004249;28;20245;-28
2023/07/03 02:41:33;;;;;;;4.87;4.40;;;;;;;25.51;46.95;97201.34;4999941;28;20257;-28
2023/07/03 02:44:00;;;;;;;4.40;4.00;;;;;;;25.49;47.01;97194.47;5003794;28;20203;-28
2023/07/03 02:46:26;;;;;;;3.90;3.60;;;;;;;25.52;46.63;97205.63;4999434;28;20317;-28
2023/07/03 02:48:53;;;;;;;4.40;4.00;;;;;;;25.52;46.79;97200.50;5002218;28;20203;-37
2023/07/03 02:51:20;;;;;;;4.67;3.90;;;;;;;25.49;46.79;97192.75;4998727;28;20226;-28
2023/07/03 02:53:47;;;;;;;3.97;3.57;;;;;;;25.53;47.01;97203.94;5003246;28;20555;-28
2023/07/03 02:56:14;;;;;;;4.23;3.53;;;;;;;25.53;46.70;97194.53;4999727;28;20234;-29
2023/07/03 02:58:40;;;;;;;4.30;3.73;;;;;;;25.54;46.94;97197.94;5009979;28;20714;-29
2023/07/03 03:01:07;;;;;;;4.87;3.57;;;;;;;25.53;47.03;97201.38;5007521;28;20672;-29
2023/07/03 03:03:34;;;;;;;3.97;3.60;;;;;;;25.54;46.73;97203.09;5006276;28;20587;-28
2023/07/03 03:06:01;;;;;;;3.70;3.40;;;;;;;25.52;46.89;97200.50;5002258;28;20226;-28
2023/07/03 03:08:28;;;;;;;4.00;3.60;;;;;;;25.53;46.78;97202.25;5014366;28;20415;-29
2023/07/03 03:10:55;;;;;;;4.47;4.07;;;;;;;25.54;47.12;97206.53;5013646;28;20214;-28
2023/07/03 03:13:22;;;;;;;4.07;3.67;;;;;;;25.54;46.94;97201.38;5002321;28;20260;-28
2023/07/03 03:15:48;;;;;;;5.37;4.13;;;;;;;25.54;46.98;97200.50;5013669;28;20226;-28
2023/07/03 03:18:15;;;;;;;3.83;3.50;;;;;;;25.54;46.86;97198.81;5006800;28;20205;-28
2023/07/03 03:20:43;;;;;;;4.47;3.67;;;;;;;25.55;47.28;97207.41;5007112;28;20668;-28
2023/07/03 03:23:10;;;;;;;4.20;3.80;;;;;;;25.55;46.78;97207.41;5009453;28;20298;-28
2023/07/03 03:25:37;;;;;;;3.70;3.40;;;;;;;25.54;47.06;97203.94;5013349;28;20202;-29
2023/07/03 03:28:04;;;;;;;4.03;3.60;;;;;;;25.54;46.92;97206.53;5006271;28;20207;-28
2023/07/03 03:30:30;;;;;;;4.23;3.77;;;;;;;25.54;47.26;97203.94;5007197;28;20264;-28
2023/07/03 03:32:57;;;;;;;3.70;3.30;;;;;;;25.54;46.86;97203.94;5001622;28;20717;-36
2023/07/03 03:35:24;;;;;;;4.30;3.50;;;;;;;25.55;47.20;97200.50;4999807;28;20198;-28
2023/07/03 03:37:50;;;;;;;4.33;3.53;;;;;;;25.51;46.86;97190.19;5002161;28;20705;-28
2023/07/03 03:40:17;;;;;;;3.83;3.50;;;;;;;25.54;47.00;97188.50;5005361;28;20583;-28
2023/07/03 03:42:43;;;;;;;4.30;3.50;;;;;;;25.54;46.82;97177.34;5014258;28;20209;-29
2023/07/03 03:45:10;;;;;;;4.20;3.80;;;;;;;25.53;47.24;97183.34;5003099;28;20211;-28
2023/07/03 03:47:36;;;;;;;4.40;3.60;;;;;;;25.55;46.92;97189.38;5007360;28;20226;-28
2023/07/03 03:50:04;;;;;;;3.70;3.30;;;;;;;25.52;47.13;97182.47;5002179;28;20253;-28
2023/07/03 03:52:30;;;;;;;4.10;3.70;;;;;;;25.55;46.94;97184.25;5006247;28;20587;-33
2023/07/03 03:54:58;;;;;;;3.60;3.30;;;;;;;25.55;47.31;97186.81;5005975;28;20206;-28
2023/07/03 03:57:25;;;;;;;3.93;3.57;;;;;;;25.56;47.22;97188.53;5009103;28;20868;-28
2023/07/03 03:59:52;;;;;;;3.80;3.40;;;;;;;25.56;47.17;97188.53;5008546;28;20199;-29
2023/07/03 04:02:18;;;;;;;4.00;3.50;;;;;;;25.55;47.15;97191.97;5009499;28;20697;-29
2023/07/03 04:04:45;;;;;;;4.30;3.87;;;;;;;25.55;47.27;97190.22;5007766;28;20202;-29
2023/07/03 04:07:12;;;;;;;3.73;3.40;;;;;;;25.54;47.22;97192.78;5002297;28;20230;-28
2023/07/03 04:09:38;;;;;;;5.47;3.63;;;;;;;25.56;47.01;97206.53;5008909;28;20214;-28
2023/07/03 04:12:05;;;;;;;3.80;3.50;;;;;;;25.56;47.37;97201.38;5001372;28;20271;-29
2023/07/03 04:14:32;;;;;;;3.90;3.50;;;;;;;25.55;47.33;97197.94;4998911;28;20206;-29
2023/07/03 04:17:00;;;;;;;3.67;3.37;;;;;;;25.55;47.01;97197.94;5005980;28;20227;-28
2023/07/03 04:19:27;;;;;;;3.43;3.13;;;;;;;25.55;47.05;97200.50;4989889;28;20199;-28
2023/07/03 04:21:54;;;;;;;3.90;3.50;;;;;;;25.56;47.04;97201.38;4999112;28;20252;-28
2023/07/03 04:24:21;;;;;;;3.80;3.50;;;;;;;25.56;47.23;97196.25;5004288;28;20202;-28
2023/07/03 04:26:47;;;;;;;4.10;3.80;;;;;;;25.56;47.27;97201.38;4988691;28;20280;-28
2023/07/03 04:29:14;;;;;;;4.83;3.70;;;;;;;25.55;47.52;97210.81;5003227;28;20800;-28
2023/07/03 04:31:40;;;;;;;6.60;3.70;;;;;;;25.55;47.40;97203.09;5001438;28;20234;-28
2023/07/03 04:34:07;;;;;;;4.30;3.90;;;;;;;25.56;47.29;97204.84;5009074;28;20273;-28
2023/07/03 04:36:34;;;;;;;4.23;3.83;;;;;;;25.56;47.47;97214.25;5001637;28;20222;-28
2023/07/03 04:39:00;;;;;;;4.07;3.67;;;;;;;25.54;47.29;97226.25;5002219;28;20210;-28
2023/07/03 04:41:27;;;;;;;12.23;6.67;;;;;;;25.51;48.63;97224.50;5003592;28;20657;-28
2023/07/03 04:43:58;;;;;;;8.83;6.60;;;;;;;25.49;48.89;97217.63;5000427;28;20398;-29
2023/07/03 04:46:26;;;;;;;11.43;8.67;;;;;;;25.45;48.75;97218.44;5007484;28;20309;-28
2023/07/03 04:48:53;;;;;;;13.60;8.37;;;;;;;25.43;48.79;97226.16;4983561;28;20207;-29
2023/07/03 04:51:20;;;;;;;10.87;8.03;;;;;;;25.40;48.62;97215.81;5008060;28;20668;-29
2023/07/03 04:53:48;;;;;;;10.30;8.13;;;;;;;25.38;48.83;97216.66;5007007;28;20577;-28
2023/07/03 04:56:15;;;;;;;10.80;8.10;;;;;;;25.35;48.34;97211.50;5000432;28;20265;-28
2023/07/03 04:58:42;;;;;;;13.67;8.77;;;;;;;25.31;48.81;97213.13;5022337;28;20204;-29
2023/07/03 05:01:11;;;;;;;11.50;8.83;;;;;;;25.31;49.16;97214.88;5005092;28;20261;-29
2023/07/03 05:03:39;;;;;;;12.90;9.53;;;;;;;25.30;49.10;97216.56;5009360;28;20292;-28
2023/07/03 05:06:06;;;;;;;19.53;13.23;;;;;;;25.30;48.58;97214.00;5004591;28;20265;-29
2023/07/03 05:08:33;;;;;;;18.13;12.67;;;;;;;25.30;48.45;97218.25;5004366;28;20676;-29
2023/07/03 05:11:00;;;;;;;18.80;12.70;;;;;;;25.30;48.91;97215.69;4995964;28;20264;-28
2023/07/03 05:13:27;;;;;;;16.30;11.87;;;;;;;25.29;48.87;97220.00;5002277;28;20277;-29
2023/07/03 05:15:53;;;;;;;15.47;11.67;;;;;;;25.31;48.54;97215.69;5009811;28;20226;-28
2023/07/03 05:18:21;;;;;;;18.93;12.33;;;;;;;25.30;48.23;97210.53;5011911;28;20289;-28
2023/07/03 05:20:48;;;;;;;15.53;12.03;;;;;;;25.31;48.35;97215.69;5011143;28;20248;-28
2023/07/03 05:23:15;;;;;;;14.60;12.00;;;;;;;25.33;48.24;97219.19;4997939;28;20206;-28
2023/07/03 05:25:42;;;;;;;20.87;14.57;;;;;;;25.10;48.84;97172.66;5004447;28;20644;-28
2023/07/03 05:28:08;;;;;;;20.47;15.20;;;;;;;25.33;48.27;97214.06;5006118;28;20284;-29
2023/07/03 05:30:35;;;;;;;23.53;15.83;;;;;;;25.35;47.71;97226.94;5006938;28;20615;-28
2023/07/03 05:33:02;;;;;;;21.87;16.23;;;;;;;25.35;47.31;97224.34;5009465;28;20233;-28
2023/07/03 05:35:28;;;;;;;25.43;16.07;;;;;;;25.31;47.62;97212.28;5009962;28;20726;-28
2023/07/03 05:37:56;;;;;;;21.00;15.77;;;;;;;25.36;47.33;97223.50;5009742;28;20206;-29
2023/07/03 05:40:22;;;;;;;22.40;16.63;;;;;;;25.34;47.32;97227.78;5007463;28;20256;-28
2023/07/03 05:42:49;;;;;;;25.37;17.17;;;;;;;25.31;47.71;97225.16;5011668;28;20252;-29
2023/07/03 05:45:16;;;;;;;25.70;16.47;;;;;;;25.31;47.62;97225.16;5009543;28;20202;-28
2023/07/03 05:47:42;;;;;;;24.57;16.40;;;;;;;25.30;47.14;97237.16;5010348;28;20229;-28
2023/07/03 05:50:09;;;;;;;25.57;18.80;;;;;;;25.30;47.31;97228.56;5001048;28;20334;-28
2023/07/03 05:52:36;;;;;;;24.67;17.30;;;;;;;25.26;47.18;97225.09;4988962;28;20268;-28
2023/07/03 05:55:04;;;;;;;25.33;17.17;;;;;;;25.26;47.17;97225.09;5005698;28;20202;-29
2023/07/03 05:57:31;;;;;;;24.87;17.03;;;;;;;25.23;47.53;97219.94;5014959;28;20572;-28
2023/07/03 05:59:59;;;;;;;25.53;18.23;;;;;;;25.23;47.33;97224.22;5012216;28;20253;-29
2023/07/03 06:02:26;;;;;;;25.97;17.00;;;;;;;25.23;47.47;97234.50;5015587;28;20206;-28
2023/07/03 06:04:53;;;;;;;21.00;15.83;;;;;;;25.20;48.11;97226.75;5005856;28;20230;-28
2023/07/03 06:07:20;;;;;;;24.43;16.63;;;;;;;25.22;48.02;97235.34;5004427;28;20233;-28
2023/07/03 06:09:46;;;;;;;22.27;17.07;;;;;;;25.20;48.17;97237.91;5010151;28;20264;-28
2023/07/03 06:12:13;;;;;;;22.07;16.50;;;;;;;25.21;48.11;97236.19;5009250;28;20245;-29
2023/07/03 06:14:39;;;;;;;25.07;16.70;;;;;;;25.20;48.05;97244.75;5005885;28;20202;-30
2023/07/03 06:17:06;;;;;;;27.90;17.20;;;;;;;25.20;48.13;97242.19;5011670;28;20269;-28
2023/07/03 06:19:33;;;;;;;27.77;17.60;;;;;;;25.17;47.52;97239.56;4997286;28;20198;-29
2023/07/03 06:21:59;;;;;;;26.33;16.90;;;;;;;25.14;47.79;97246.41;5010091;28;20202;-29
2023/07/03 06:24:26;;;;;;;16.83;10.17;;;;;;;25.10;49.05;97249.78;5010570;28;20206;-29
2023/07/03 06:26:53;;;;;;;13.43;8.57;;;;;;;25.07;49.26;97254.91;5014351;28;20716;-29
2023/07/03 06:29:19;;;;;;;15.80;8.40;;;;;;;25.00;49.69;97247.09;5011929;28;20226;-29
2023/07/03 06:31:47;;;;;;;17.50;10.07;;;;;;;25.01;49.48;97259.09;5008329;28;20195;-28
2023/07/03 06:34:13;;;;;;;15.50;10.23;;;;;;;24.96;49.66;97251.34;5014816;28;20202;-29
2023/07/03 06:36:40;;;;;;;15.27;10.37;;;;;;;24.95;49.70;97252.19;5014174;28;20214;-28
2023/07/03 06:39:08;;;;;;;13.37;10.37;;;;;;;24.93;49.77;97253.03;4997726;28;20215;-29
2023/07/03 06:41:35;;;;;;;16.00;10.50;;;;;;;24.84;50.06;97240.91;4997949;28;20285;-29
2023/07/03 06:44:02;;;;;;;15.90;10.97;;;;;;;24.88;50.48;97255.56;5020038;28;20206;-28
2023/07/03 06:46:29;;;;;;;13.57;10.23;;;;;;;24.88;50.38;97257.25;5004562;28;20218;-28
2023/07/03 06:48:56;;;;;;;13.77;10.03;;;;;;;24.88;50.37;97252.09;5001688;28;20199;-28
2023/07/03 06:51:23;;;;;;;11.80;9.57;;;;;;;24.88;50.23;97246.97;5012410;28;20195;-28
2023/07/03 06:53:50;;;;;;;14.17;10.33;;;;;;;24.87;50.82;97251.22;5011381;28;20575;-28
2023/07/03 06:56:17;;;;;;;13.87;10.03;;;;;;;24.87;50.66;97248.66;4999562;28;20231;-28
2023/07/03 06:58:44;;;;;;;13.07;9.77;;;;;;;24.86;50.79;97246.94;5013188;28;20248;-29
2023/07/03 07:01:12;;;;;;;14.30;9.87;;;;;;;24.86;50.75;97248.66;5014387;28;20206;-28
2023/07/03 07:03:38;;;;;;;17.20;9.93;;;;;;;24.85;50.80;97254.66;5014497;28;20206;-28
2023/07/03 07:06:13;;;;;;;12.70;9.80;;;;;;;24.83;50.62;97244.34;5000793;28;20774;-28
2023/07/03 07:08:40;;;;;;;13.53;9.90;;;;;;;24.83;50.88;97256.31;5011820;28;20226;-29
2023/07/03 07:11:11;;;;;;;11.87;9.50;;;;;;;24.82;50.66;97260.63;5004977;28;20678;-29
2023/07/03 07:13:42;;;;;;;12.70;10.10;;;;;;;24.81;50.69;97256.31;5001228;28;20203;-29
2023/07/03 07:16:20;;;;;;;11.47;9.20;;;;;;;24.82;50.77;97249.47;5012457;28;20226;-29
2023/07/03 07:18:47;;;;;;;12.03;9.90;;;;;;;24.78;51.13;97245.97;5006784;28;20206;-28
2023/07/03 07:21:14;;;;;;;10.50;9.23;;;;;;;24.79;51.10;97245.16;5007378;28;20203;-29
2023/07/03 07:23:40;;;;;;;12.07;9.83;;;;;;;24.80;51.10;97251.16;5001195;28;20226;-30
2023/07/03 07:26:07;;;;;;;12.57;10.13;;;;;;;24.78;51.10;97245.97;5002263;28;20296;-29
2023/07/03 07:28:34;;;;;;;13.23;9.37;;;;;;;24.79;51.42;97245.16;5001275;28;20676;-29
2023/07/03 07:31:00;;;;;;;11.60;9.43;;;;;;;24.76;51.48;97237.41;5003588;28;20652;-32
2023/07/03 07:33:27;;;;;;;12.30;9.03;;;;;;;24.77;51.41;97239.13;5008577;28;20248;-28
2023/07/03 07:35:54;;;;;;;10.47;8.80;;;;;;;24.77;51.42;97236.56;5008996;28;20235;-28
2023/07/03 07:38:21;;;;;;;12.57;9.83;;;;;;;24.77;51.02;97235.69;5009835;28;20296;-29
2023/07/03 07:40:49;;;;;;;11.07;8.80;;;;;;;24.76;51.54;97234.84;5005231;28;20206;-28
2023/07/03 07:43:15;;;;;;;12.00;9.03;;;;;;;24.75;51.51;97224.53;4998992;28;20708;-29
2023/07/03 07:45:42;;;;;;;10.90;9.20;;;;;;;24.75;51.41;97238.25;5005649;28;20202;-28
2023/07/03 07:48:09;;;;;;;12.10;9.03;;;;;;;24.75;51.29;97232.25;5003360;28;20215;-30
2023/07/03 07:50:36;;;;;;;11.00;9.20;;;;;;;24.74;51.64;97231.38;5006195;28;20210;-33
2023/07/03 07:53:02;;;;;;;10.77;8.77;;;;;;;24.74;51.75;97236.53;5007484;28;20261;-28
2023/07/03 07:55:29;;;;;;;11.13;9.43;;;;;;;24.73;51.35;97226.22;5004838;28;20206;-30
2023/07/03 07:57:56;;;;;;;13.67;9.37;;;;;;;24.72;51.62;97227.09;5001571;28;20211;-29
2023/07/03 08:00:22;;;;;;;11.37;9.17;;;;;;;24.70;51.29;97228.75;5006559;28;20202;-28
2023/07/03 08:02:49;;;;;;;12.27;9.47;;;;;;;24.69;51.53;97229.63;5005807;28;20206;-29
2023/07/03 08:05:16;;;;;;;11.00;8.87;;;;;;;24.68;51.99;97228.75;5004876;28;20296;-28
2023/07/03 08:07:42;;;;;;;12.07;8.63;;;;;;;24.68;51.39;97223.59;5035762;22;20244;-27
2023/07/03 08:10:09;;;;;;;13.77;9.60;;;;;;;24.67;51.51;97227.03;5027167;28;20632;-28
2023/07/03 08:12:36;;;;;;;14.27;9.13;;;;;;;24.67;51.93;97221.00;5023813;28;20680;-30
2023/07/03 08:15:03;;;;;;;11.43;9.30;;;;;;;24.67;51.68;97228.72;5011622;28;20296;-27
2023/07/03 08:17:30;;;;;;;11.60;9.10;;;;;;;24.66;51.69;97230.41;5010830;28;20587;-27
2023/07/03 08:19:57;;;;;;;10.03;8.63;;;;;;;24.67;51.95;97228.72;4999078;28;20242;-28
2023/07/03 08:22:24;;;;;;;12.30;8.80;;;;;;;24.59;51.59;97215.75;5001683;28;20202;-27
2023/07/03 08:24:50;;;;;;;11.80;8.70;;;;;;;24.67;51.44;97237.31;4996340;28;20207;-27
2023/07/03 08:27:17;;;;;;;10.57;9.00;;;;;;;24.67;51.49;97231.28;5000057;28;20233;-27
2023/07/03 08:29:46;;;;;;;12.10;8.93;;;;;;;24.67;51.81;97239.00;4996791;28;20213;-28
2023/07/03 08:32:14;;;;;;;10.27;8.23;;;;;;;24.67;51.92;97242.44;5004119;28;20225;-27
2023/07/03 08:34:41;;;;;;;9.37;8.37;;;;;;;24.65;51.32;97241.56;5003569;28;20206;-31
2023/07/03 08:37:29;;;;;;;11.90;8.50;;;;;;;24.65;51.75;97236.41;5008218;28;20304;-27
2023/07/03 08:39:56;;;;;;;10.97;9.03;;;;;;;24.65;51.67;97230.41;5000141;28;20764;-27
2023/07/03 08:42:25;;;;;;;11.13;8.50;;;;;;;24.65;51.68;97238.97;5006050;28;20624;-27
2023/07/03 08:44:51;;;;;;;9.07;8.00;;;;;;;24.64;51.27;97224.38;4979515;28;20214;-27
2023/07/03 08:47:20;;;;;;;13.03;8.80;;;;;;;24.61;50.27;97223.47;5005034;28;20280;-27
2023/07/03 08:49:47;;;;;;;9.30;7.70;;;;;;;24.63;50.25;97226.94;4975037;28;20203;-27
2023/07/03 08:52:31;;;;;;;10.90;7.77;;;;;;;24.61;50.40;97228.63;4999777;28;20590;-27
2023/07/03 08:54:57;;;;;;;8.47;7.60;;;;;;;24.61;50.59;97229.50;4987555;28;20214;-27
2023/07/03 08:57:24;;;;;;;10.50;8.50;;;;;;;24.62;50.66;97235.47;4966456;28;20230;-26
2023/07/03 08:59:53;;;;;;;9.23;8.10;;;;;;;24.61;50.28;97231.19;4962924;28;20207;-27
2023/07/03 09:02:26;;;;;;;9.10;7.97;;;;;;;24.56;50.40;97219.97;4996365;28;20202;-27
2023/07/03 09:05:01;;;;;;;7.93;7.03;;;;;;;24.61;50.48;97226.91;4958098;28;20218;-27
2023/07/03 09:07:31;;;;;;;10.40;7.70;;;;;;;24.62;50.66;97222.63;4978373;28;20261;-27
2023/07/03 09:10:19;;;;;;;10.67;7.83;;;;;;;24.63;50.17;97221.78;4978668;28;20262;-27
2023/07/03 09:12:46;;;;;;;11.53;8.20;;;;;;;24.63;50.18;97220.06;4968315;28;20209;-31
2023/07/03 09:15:23;;;;;;;8.57;7.57;;;;;;;24.65;50.33;97220.13;4999831;28;20292;-27
2023/07/03 09:17:49;;;;;;;9.20;7.33;;;;;;;24.60;50.50;97220.03;4981487;28;20640;-27
2023/07/03 09:20:16;;;;;;;9.23;8.23;;;;;;;24.66;50.37;97229.56;5003202;28;20681;-27
2023/07/03 09:22:49;;;;;;;9.03;7.30;;;;;;;24.67;50.31;97233.88;4979292;28;20298;-27
2023/07/03 09:25:38;;;;;;;8.33;7.00;;;;;;;24.61;49.98;97208.94;4990546;28;20254;-26
2023/07/03 09:28:05;;;;;;;9.17;7.50;;;;;;;24.67;50.47;97223.59;4984243;28;20763;-27
2023/07/03 09:30:32;;;;;;;9.67;8.23;;;;;;;24.69;50.36;97224.47;4969204;28;20629;-27
2023/07/03 09:32:59;;;;;;;10.53;6.90;;;;;;;24.69;50.54;97227.88;5000447;28;20198;-27
2023/07/03 09:35:33;;;;;;;8.27;6.80;;;;;;;24.70;50.34;97223.63;5000186;28;20198;-27
2023/07/03 09:38:01;;;;;;;9.20;7.17;;;;;;;24.70;50.37;97234.78;4975614;28;20242;-32
2023/07/03 09:40:38;;;;;;;11.30;6.83;;;;;;;24.71;50.68;97226.22;4993559;28;20199;-28
2023/07/03 09:43:12;;;;;;;8.53;6.43;;;;;;;24.72;50.63;97227.91;4974724;28;20256;-26
2023/07/03 09:45:39;;;;;;;9.73;6.87;;;;;;;24.70;50.49;97227.06;4982259;28;20195;-27
2023/07/03 09:48:25;;;;;;;11.13;6.50;;;;;;;24.71;50.67;97228.78;4979858;28;20733;-27
2023/07/03 09:50:51;;;;;;;7.77;6.63;;;;;;;24.74;50.43;97230.50;4995259;28;20286;-27
2023/07/03 09:53:35;;;;;;;8.07;6.57;;;;;;;24.73;50.75;97237.38;4979541;28;20198;-27
2023/07/03 09:56:02;;;;;;;8.17;6.60;;;;;;;24.74;50.49;97230.50;4980078;28;20204;-27
2023/07/03 09:58:29;;;;;;;7.20;6.07;;;;;;;24.74;50.62;97231.38;4993231;28;20226;-28
2023/07/03 10:00:57;;;;;;;7.27;6.57;;;;;;;24.74;50.35;97226.25;4993375;28;20677;-27
2023/07/03 10:03:26;;;;;;;8.53;7.00;;;;;;;24.75;50.39;97224.53;4999728;28;20214;-27
2023/07/03 10:06:12;;;;;;;7.77;6.03;;;;;;;24.76;50.62;97222.00;5001551;28;20292;-27
2023/07/03 10:08:44;;;;;;;7.80;6.57;;;;;;;24.77;50.16;97230.53;4978099;28;20273;-27
2023/07/03 10:11:12;;;;;;;9.03;6.93;;;;;;;24.78;50.67;97219.44;4980665;28;20273;-27
2023/07/03 10:13:44;;;;;;;8.33;6.70;;;;;;;24.79;50.22;97226.28;4981571;28;20213;-27
2023/07/03 10:16:11;;;;;;;8.00;6.63;;;;;;;24.78;50.68;97225.44;4981221;28;20297;-27
2023/07/03 10:18:38;;;;;;;7.20;6.50;;;;;;;24.79;50.54;97236.56;4972495;28;20203;-26
2023/07/03 10:21:08;;;;;;;6.83;6.13;;;;;;;24.79;50.52;97229.75;4983564;28;20202;-28
2023/07/03 10:23:37;;;;;;;7.83;6.30;;;;;;;24.72;50.40;97220.22;4967445;28;20696;-27
2023/07/03 10:26:25;;;;;;;7.57;5.90;;;;;;;24.80;50.58;97228.00;4982042;28;20624;-27
2023/07/03 10:29:19;;;;;;;6.97;5.87;;;;;;;24.79;50.49;97229.75;4985865;28;20270;-27
2023/07/03 10:31:49;;;;;;;6.80;6.10;;;;;;;24.80;50.24;97228.00;4983258;28;20627;-27
2023/07/03 10:34:22;;;;;;;7.07;6.37;;;;;;;24.78;50.27;97217.72;4996411;28;20205;-27
2023/07/03 10:36:50;;;;;;;6.73;5.73;;;;;;;24.80;50.42;97236.59;4969553;28;20226;-26
2023/07/03 10:39:20;;;;;;;7.03;6.00;;;;;;;24.82;50.51;97232.34;4975336;28;20443;-27
2023/07/03 10:41:49;;;;;;;16.13;5.73;;;;;;;24.81;50.74;97229.75;4984601;28;20233;-27
2023/07/03 10:44:25;;;;;;;6.57;5.87;;;;;;;24.80;50.67;97231.47;4986523;28;20209;-27
2023/07/03 10:47:02;;;;;;;6.73;6.03;;;;;;;24.81;50.76;97234.91;4985678;28;20260;-28
2023/07/03 10:49:30;;;;;;;7.80;6.10;;;;;;;24.82;50.25;97232.34;4987002;28;20221;-30
2023/07/03 10:52:34;;;;;;;6.37;5.30;;;;;;;24.83;50.40;97235.75;5001717;28;20214;-27
2023/07/03 10:55:22;;;;;;;7.73;5.93;;;;;;;24.80;50.54;97228.88;4989126;28;20269;-26
2023/07/03 10:57:51;;;;;;;13.07;5.93;;;;;;;24.81;50.17;97228.03;4986313;28;20223;-27
2023/07/03 11:00:27;;;;;;;6.77;6.07;;;;;;;24.79;50.22;97221.16;4997806;28;20598;-26
2023/07/03 11:03:06;;;;;;;6.57;5.77;;;;;;;24.80;50.55;97217.72;4987790;28;20860;-30
2023/07/03 11:05:36;;;;;;;5.83;5.23;;;;;;;24.78;50.15;97216.88;4997307;28;20229;-27
2023/07/03 11:08:09;;;;;;;6.20;5.60;;;;;;;24.81;50.09;97220.31;4983486;28;20764;-27
2023/07/03 11:10:53;;;;;;;7.13;4.97;;;;;;;24.83;50.15;97228.03;4986515;28;20206;-27
2023/07/03 11:13:32;;;;;;;6.13;5.47;;;;;;;24.83;50.16;97225.47;4989987;28;20198;-27
2023/07/03 11:15:59;;;;;;;5.93;5.27;;;;;;;24.83;50.10;97208.34;4970349;28;20297;-26
2023/07/03 11:18:54;;;;;;;5.67;5.10;;;;;;;24.84;50.29;97210.06;4997356;28;20218;-27
2023/07/03 11:21:29;;;;;;;5.87;5.13;;;;;;;24.80;50.36;97216.03;5003199;28;20276;-27
2023/07/03 11:24:11;;;;;;;7.73;5.63;;;;;;;24.84;50.42;97209.22;4978012;28;20256;-28
2023/07/03 11:26:39;;;;;;;6.47;5.00;;;;;;;24.83;50.49;97208.34;4996906;28;20227;-27
2023/07/03 11:29:10;;;;;;;6.07;5.43;;;;;;;24.84;50.22;97216.94;4996663;28;20249;-27
2023/07/03 11:31:39;;;;;;;5.60;5.10;;;;;;;24.82;50.51;97196.34;5006701;28;20240;-27
2023/07/03 11:34:08;;;;;;;5.47;4.97;;;;;;;24.84;50.03;97204.09;4983668;28;20214;-27
2023/07/03 11:36:45;;;;;;;5.50;4.90;;;;;;;24.85;50.26;97195.53;4981043;28;20281;-26
2023/07/03 11:39:33;;;;;;;5.90;4.90;;;;;;;24.86;50.41;97197.22;4983131;28;20289;-33